Аэропорт: Гродно. Гродно

ICAO: UMMG

METAR:
2018/05/20 16:00
UMMG 201600Z 01005G08MPS CAVOK 19/03 Q1024 NOSIG
METAR:
2018/04/06 12:21
TAF UMMG 061100Z 0612/0624 27008G13MPS 9999 SCT020 
      TEMPO 0612/0618 28011G16MPS BKN015 
      TEMPO 0621/0624 24005MPS 2000 BR SCT005